sensor_id;sensor_type;location;lat;lon;timestamp;pressure;altitude;pressure_sealevel;temperature;humidity
49945;BME280;35838;49.134;9.212;2022-08-19T09:03:55;99491.47;;;22.38;65.89
49945;BME280;35838;49.134;9.212;2022-08-19T09:05:36;99489.66;;;22.39;65.71
49945;BME280;35838;49.134;9.212;2022-08-19T09:07:26;99483.13;;;22.30;66.17
49945;BME280;35838;49.134;9.212;2022-08-19T09:09:12;99478.06;;;22.42;65.84
49945;BME280;35838;49.134;9.212;2022-08-19T09:10:51;99469.59;;;22.51;65.46
49945;BME280;35838;49.134;9.212;2022-08-19T09:12:33;99475.19;;;22.61;64.98
49945;BME280;35838;49.134;9.212;2022-08-19T09:14:15;99471.94;;;22.70;65.05
49945;BME280;35838;49.134;9.212;2022-08-19T09:15:56;99475.00;;;22.78;64.89
49945;BME280;35838;49.134;9.212;2022-08-19T09:17:32;99470.25;;;22.83;64.14
49945;BME280;35838;49.134;9.212;2022-08-19T09:19:09;99475.38;;;22.87;64.48
49945;BME280;35838;49.134;9.212;2022-08-19T09:20:43;99471.19;;;22.97;64.71
49945;BME280;35838;49.134;9.212;2022-08-19T09:22:18;99484.34;;;22.98;64.04
49945;BME280;35838;49.134;9.212;2022-08-19T09:23:54;99473.34;;;23.05;64.14
49945;BME280;35838;49.134;9.212;2022-08-19T09:25:28;99479.50;;;23.05;64.06
49945;BME280;35838;49.134;9.212;2022-08-19T09:27:05;99476.94;;;23.04;63.75
49945;BME280;35838;49.134;9.212;2022-08-19T09:28:39;99466.84;;;23.10;63.85
49945;BME280;35838;49.134;9.212;2022-08-19T09:30:17;99472.22;;;23.09;64.02
49945;BME280;35838;49.134;9.212;2022-08-19T09:31:52;99475.59;;;23.11;63.92
49945;BME280;35838;49.134;9.212;2022-08-19T09:33:26;99476.56;;;23.10;63.82
49945;BME280;35838;49.134;9.212;2022-08-19T09:35:05;99472.44;;;22.91;63.78
49945;BME280;35838;49.134;9.212;2022-08-19T09:36:39;99483.09;;;22.90;64.44
49945;BME280;35838;49.134;9.212;2022-08-19T09:38:13;99482.44;;;22.86;64.50
49945;BME280;35838;49.134;9.212;2022-08-19T09:39:47;99479.63;;;22.89;64.46
49945;BME280;35838;49.134;9.212;2022-08-19T09:41:23;99484.91;;;22.89;64.43
49945;BME280;35838;49.134;9.212;2022-08-19T09:42:57;99471.88;;;22.86;64.76
49945;BME280;35838;49.134;9.212;2022-08-19T09:44:33;99485.84;;;22.88;64.84
49945;BME280;35838;49.134;9.212;2022-08-19T09:46:06;99479.03;;;22.84;65.21
49945;BME280;35838;49.134;9.212;2022-08-19T09:47:40;99490.50;;;22.84;65.11
49945;BME280;35838;49.134;9.212;2022-08-19T09:49:15;99483.31;;;22.87;64.84
49945;BME280;35838;49.134;9.212;2022-08-19T09:50:52;99489.34;;;22.89;64.89
49945;BME280;35838;49.134;9.212;2022-08-19T09:52:26;99489.41;;;23.01;64.75
49945;BME280;35838;49.134;9.212;2022-08-19T09:54:01;99488.41;;;23.04;64.71
49945;BME280;35838;49.134;9.212;2022-08-19T09:55:41;99489.06;;;23.08;64.04
49945;BME280;35838;49.134;9.212;2022-08-19T09:57:16;99483.94;;;23.05;63.91
49945;BME280;35838;49.134;9.212;2022-08-19T09:58:50;99485.94;;;23.01;63.63
49945;BME280;35838;49.134;9.212;2022-08-19T10:00:24;99479.50;;;23.05;63.94
49945;BME280;35838;49.134;9.212;2022-08-19T10:01:58;99486.50;;;23.06;63.21
49945;BME280;35838;49.134;9.212;2022-08-19T10:03:33;99489.41;;;23.16;63.21
49945;BME280;35838;49.134;9.212;2022-08-19T10:05:08;99490.09;;;23.20;63.49
49945;BME280;35838;49.134;9.212;2022-08-19T10:06:57;99483.47;;;23.27;62.97
49945;BME280;35838;49.134;9.212;2022-08-19T10:08:34;99482.34;;;23.31;61.92
49945;BME280;35838;49.134;9.212;2022-08-19T10:10:10;99488.19;;;23.36;60.27
49945;BME280;35838;49.134;9.212;2022-08-19T10:11:45;99483.34;;;23.43;59.58
49945;BME280;35838;49.134;9.212;2022-08-19T10:13:23;99490.25;;;23.45;59.64
49945;BME280;35838;49.134;9.212;2022-08-19T10:14:57;99495.69;;;23.57;58.98
49945;BME280;35838;49.134;9.212;2022-08-19T10:16:32;99495.09;;;23.66;59.63
49945;BME280;35838;49.134;9.212;2022-08-19T10:18:06;99489.25;;;23.61;59.40
49945;BME280;35838;49.134;9.212;2022-08-19T10:19:40;99488.06;;;23.52;58.95
49945;BME280;35838;49.134;9.212;2022-08-19T10:21:17;99489.75;;;23.53;57.86
49945;BME280;35838;49.134;9.212;2022-08-19T10:22:54;99495.69;;;23.57;57.61
49945;BME280;35838;49.134;9.212;2022-08-19T10:24:30;99492.66;;;23.63;58.09
49945;BME280;35838;49.134;9.212;2022-08-19T10:26:06;99478.66;;;23.61;57.50
49945;BME280;35838;49.134;9.212;2022-08-19T10:27:40;99484.28;;;23.69;57.39
49945;BME280;35838;49.134;9.212;2022-08-19T10:29:14;99479.34;;;23.77;57.12
49945;BME280;35838;49.134;9.212;2022-08-19T10:30:48;99484.25;;;23.84;56.27
49945;BME280;35838;49.134;9.212;2022-08-19T10:32:23;99478.94;;;23.84;56.19
49945;BME280;35838;49.134;9.212;2022-08-19T10:33:57;99476.00;;;23.88;55.93
49945;BME280;35838;49.134;9.212;2022-08-19T10:35:31;99465.28;;;23.90;55.67
49945;BME280;35838;49.134;9.212;2022-08-19T10:37:06;99468.56;;;23.93;55.81
49945;BME280;35838;49.134;9.212;2022-08-19T10:38:43;99467.88;;;24.04;55.65
49945;BME280;35838;49.134;9.212;2022-08-19T10:40:17;99466.50;;;24.12;55.26
49945;BME280;35838;49.134;9.212;2022-08-19T10:41:51;99468.34;;;24.24;55.25
49945;BME280;35838;49.134;9.212;2022-08-19T10:43:27;99450.63;;;24.37;54.98
49945;BME280;35838;49.134;9.212;2022-08-19T10:45:01;99454.97;;;24.38;54.35
49945;BME280;35838;49.134;9.212;2022-08-19T10:46:39;99458.38;;;24.40;54.54
49945;BME280;35838;49.134;9.212;2022-08-19T10:48:15;99454.13;;;24.38;54.16
49945;BME280;35838;49.134;9.212;2022-08-19T10:49:49;99457.94;;;24.47;54.35
49945;BME280;35838;49.134;9.212;2022-08-19T10:51:35;99447.88;;;24.52;53.32
49945;BME280;35838;49.134;9.212;2022-08-19T10:53:23;99458.16;;;24.56;52.85
49945;BME280;35838;49.134;9.212;2022-08-19T10:54:59;99456.28;;;24.46;53.01
49945;BME280;35838;49.134;9.212;2022-08-19T10:56:46;99451.69;;;24.48;53.51
49945;BME280;35838;49.134;9.212;2022-08-19T10:58:23;99438.44;;;24.48;52.85
49945;BME280;35838;49.134;9.212;2022-08-19T15:02:25;99430.56;;;23.94;61.63
49945;BME280;35838;49.134;9.212;2022-08-19T15:03:59;99429.69;;;23.94;61.51
49945;BME280;35838;49.134;9.212;2022-08-19T15:05:33;99441.03;;;23.96;60.72
49945;BME280;35838;49.134;9.212;2022-08-19T15:07:07;99435.75;;;23.96;60.66
49945;BME280;35838;49.134;9.212;2022-08-19T15:08:42;99432.25;;;23.96;60.09
49945;BME280;35838;49.134;9.212;2022-08-19T15:10:16;99431.31;;;23.97;58.54
49945;BME280;35838;49.134;9.212;2022-08-19T15:11:48;99441.81;;;23.98;58.24
49945;BME280;35838;49.134;9.212;2022-08-19T15:13:22;99440.84;;;23.99;58.12
49945;BME280;35838;49.134;9.212;2022-08-19T15:14:57;99443.50;;;23.99;57.81
49945;BME280;35838;49.134;9.212;2022-08-19T15:16:31;99445.19;;;24.00;59.03
49945;BME280;35838;49.134;9.212;2022-08-19T15:18:08;99443.19;;;24.04;58.74
49945;BME280;35838;49.134;9.212;2022-08-19T15:19:42;99442.25;;;24.05;57.68
49945;BME280;35838;49.134;9.212;2022-08-19T15:21:17;99446.16;;;24.12;58.42
49945;BME280;35838;49.134;9.212;2022-08-19T15:22:51;99445.84;;;24.17;58.90
49945;BME280;35838;49.134;9.212;2022-08-19T15:24:25;99443.53;;;24.25;58.46
49945;BME280;35838;49.134;9.212;2022-08-19T15:25:59;99442.03;;;24.34;58.78
49945;BME280;35838;49.134;9.212;2022-08-19T15:27:33;99437.72;;;24.46;58.38
49945;BME280;35838;49.134;9.212;2022-08-19T15:29:09;99441.63;;;24.53;58.01
49945;BME280;35838;49.134;9.212;2022-08-19T15:30:45;99438.22;;;24.51;58.06
49945;BME280;35838;49.134;9.212;2022-08-19T15:32:19;99440.97;;;24.62;58.01
49945;BME280;35838;49.134;9.212;2022-08-19T15:33:56;99438.22;;;24.77;57.03
49945;BME280;35838;49.134;9.212;2022-08-19T15:35:31;99439.06;;;24.90;54.98
49945;BME280;35838;49.134;9.212;2022-08-19T15:37:05;99442.53;;;25.03;53.56
49945;BME280;35838;49.134;9.212;2022-08-19T15:38:39;99444.31;;;25.16;53.27
49945;BME280;35838;49.134;9.212;2022-08-19T15:40:13;99444.13;;;25.30;53.06
49945;BME280;35838;49.134;9.212;2022-08-19T15:41:47;99444.13;;;25.43;52.69
49945;BME280;35838;49.134;9.212;2022-08-19T15:43:21;99445.22;;;25.52;52.29
49945;BME280;35838;49.134;9.212;2022-08-19T15:44:52;99446.16;;;25.64;52.00
49945;BME280;35838;49.134;9.212;2022-08-19T15:46:28;99442.47;;;25.78;52.40
49945;BME280;35838;49.134;9.212;2022-08-19T15:48:03;99439.06;;;25.76;52.57
49945;BME280;35838;49.134;9.212;2022-08-19T15:49:40;99436.41;;;25.76;53.13
49945;BME280;35838;49.134;9.212;2022-08-19T15:51:14;99444.75;;;25.71;53.42
49945;BME280;35838;49.134;9.212;2022-08-19T15:52:47;99438.47;;;25.72;53.73
49945;BME280;35838;49.134;9.212;2022-08-19T15:54:22;99436.97;;;25.68;53.77
49945;BME280;35838;49.134;9.212;2022-08-19T15:55:56;99448.00;;;25.75;53.90
49945;BME280;35838;49.134;9.212;2022-08-19T15:57:30;99440.66;;;25.78;53.73
49945;BME280;35838;49.134;9.212;2022-08-19T15:59:16;99440.53;;;25.80;54.14
49945;BME280;35838;49.134;9.212;2022-08-19T16:01:06;99445.75;;;25.57;54.37
49945;BME280;35838;49.134;9.212;2022-08-19T16:02:53;99447.28;;;25.73;54.38
49945;BME280;35838;49.134;9.212;2022-08-19T16:04:47;99448.47;;;25.69;55.27
49945;BME280;35838;49.134;9.212;2022-08-19T16:06:34;99449.59;;;25.53;56.88
49945;BME280;35838;49.134;9.212;2022-08-19T16:08:09;99447.72;;;25.67;56.37
49945;BME280;35838;49.134;9.212;2022-08-19T16:09:43;99445.56;;;25.72;56.10
49945;BME280;35838;49.134;9.212;2022-08-19T16:11:18;99441.88;;;25.86;56.27
49945;BME280;35838;49.134;9.212;2022-08-19T16:12:52;99446.84;;;26.15;55.76
49945;BME280;35838;49.134;9.212;2022-08-19T16:14:27;99447.69;;;26.26;55.87
49945;BME280;35838;49.134;9.212;2022-08-19T16:16:01;99448.34;;;26.98;54.18
49945;BME280;35838;49.134;9.212;2022-08-19T16:17:36;99448.84;;;27.59;52.63
49945;BME280;35838;49.134;9.212;2022-08-19T16:19:10;99443.81;;;27.98;51.57
49945;BME280;35838;49.134;9.212;2022-08-19T16:20:48;99446.91;;;28.36;50.60
49945;BME280;35838;49.134;9.212;2022-08-19T16:22:27;99439.41;;;28.60;49.78
49945;BME280;35838;49.134;9.212;2022-08-19T16:24:04;99446.69;;;28.80;49.49
49945;BME280;35838;49.134;9.212;2022-08-19T16:25:39;99445.53;;;29.03;48.52
49945;BME280;35838;49.134;9.212;2022-08-19T16:27:13;99446.47;;;28.61;48.84
49945;BME280;35838;49.134;9.212;2022-08-19T16:28:47;99450.94;;;28.61;49.40
49945;BME280;35838;49.134;9.212;2022-08-19T16:30:20;99445.00;;;28.48;49.44
49945;BME280;35838;49.134;9.212;2022-08-19T16:31:54;99453.25;;;28.44;49.97
49945;BME280;35838;49.134;9.212;2022-08-19T16:33:28;99452.19;;;28.57;49.74
49945;BME280;35838;49.134;9.212;2022-08-19T16:35:03;99449.28;;;28.60;49.56
49945;BME280;35838;49.134;9.212;2022-08-19T16:36:41;99451.75;;;28.52;50.05
49945;BME280;35838;49.134;9.212;2022-08-19T16:38:15;99462.13;;;28.45;50.65
49945;BME280;35838;49.134;9.212;2022-08-19T16:39:49;99455.34;;;28.20;51.28
49945;BME280;35838;49.134;9.212;2022-08-19T16:41:22;99459.09;;;27.96;52.19
49945;BME280;35838;49.134;9.212;2022-08-19T16:42:58;99450.59;;;27.70;53.09
49945;BME280;35838;49.134;9.212;2022-08-19T16:44:33;99453.59;;;27.55;53.73
49945;BME280;35838;49.134;9.212;2022-08-19T16:46:09;99455.28;;;27.33;53.91
49945;BME280;35838;49.134;9.212;2022-08-19T16:47:43;99457.06;;;27.12;54.54
49945;BME280;35838;49.134;9.212;2022-08-19T16:49:17;99456.47;;;26.97;54.59
49945;BME280;35838;49.134;9.212;2022-08-19T16:50:52;99458.88;;;26.66;55.06
49945;BME280;35838;49.134;9.212;2022-08-19T16:52:29;99460.19;;;26.49;56.02
49945;BME280;35838;49.134;9.212;2022-08-19T16:54:04;99467.41;;;26.00;57.11
49945;BME280;35838;49.134;9.212;2022-08-19T16:55:38;99470.78;;;25.90;57.39
49945;BME280;35838;49.134;9.212;2022-08-19T16:57:12;99467.91;;;25.69;58.21
49945;BME280;35838;49.134;9.212;2022-08-19T16:58:46;99470.25;;;25.37;59.33
49945;BME280;35838;49.134;9.212;2022-08-19T17:00:20;99476.97;;;25.29;59.84
49945;BME280;35838;49.134;9.212;2022-08-19T17:01:54;99474.63;;;25.25;60.28
49945;BME280;35838;49.134;9.212;2022-08-19T17:03:29;99469.81;;;25.06;60.35
49945;BME280;35838;49.134;9.212;2022-08-19T17:05:04;99480.47;;;24.93;61.33
49945;BME280;35838;49.134;9.212;2022-08-19T17:06:38;99474.94;;;24.83;61.47
49945;BME280;35838;49.134;9.212;2022-08-19T17:08:15;99472.84;;;24.75;62.29
49945;BME280;35838;49.134;9.212;2022-08-19T17:09:49;99483.03;;;24.68;62.08
49945;BME280;35838;49.134;9.212;2022-08-19T17:11:24;99483.31;;;24.38;62.90
49945;BME280;35838;49.134;9.212;2022-08-19T17:12:59;99482.34;;;24.26;63.35
49945;BME280;35838;49.134;9.212;2022-08-19T17:14:33;99487.66;;;24.26;63.36
49945;BME280;35838;49.134;9.212;2022-08-19T17:16:06;99485.19;;;24.10;64.11
49945;BME280;35838;49.134;9.212;2022-08-19T17:17:40;99481.69;;;24.09;63.81
49945;BME280;35838;49.134;9.212;2022-08-19T17:19:14;99482.94;;;24.04;64.02
49945;BME280;35838;49.134;9.212;2022-08-19T17:20:49;99485.91;;;23.99;64.38
49945;BME280;35838;49.134;9.212;2022-08-19T17:22:23;99491.25;;;23.57;66.37
49945;BME280;35838;49.134;9.212;2022-08-19T17:24:02;99494.50;;;23.75;66.09
49945;BME280;35838;49.134;9.212;2022-08-19T17:25:38;99494.09;;;23.82;65.58
49945;BME280;35838;49.134;9.212;2022-08-19T17:27:12;99490.56;;;23.81;65.16
49945;BME280;35838;49.134;9.212;2022-08-19T17:28:49;99494.88;;;23.69;65.50
49945;BME280;35838;49.134;9.212;2022-08-19T17:30:24;99492.44;;;23.66;65.90
49945;BME280;35838;49.134;9.212;2022-08-19T17:31:58;99496.19;;;23.76;65.44
49945;BME280;35838;49.134;9.212;2022-08-19T17:33:33;99502.19;;;23.93;64.84
49945;BME280;35838;49.134;9.212;2022-08-19T17:35:08;99494.19;;;24.07;64.25
49945;BME280;35838;49.134;9.212;2022-08-19T17:36:42;99489.75;;;24.21;63.50
49945;BME280;35838;49.134;9.212;2022-08-19T17:38:18;99498.03;;;24.29;63.47
49945;BME280;35838;49.134;9.212;2022-08-19T17:39:57;99498.03;;;24.29;63.23
49945;BME280;35838;49.134;9.212;2022-08-19T17:41:31;99491.88;;;24.29;63.20
49945;BME280;35838;49.134;9.212;2022-08-19T17:43:06;99497.78;;;24.06;63.81
49945;BME280;35838;49.134;9.212;2022-08-19T17:44:40;99490.78;;;24.05;63.67
49945;BME280;35838;49.134;9.212;2022-08-19T17:46:14;99505.41;;;23.98;64.09
49945;BME280;35838;49.134;9.212;2022-08-19T17:47:50;99499.53;;;23.93;64.53
49945;BME280;35838;49.134;9.212;2022-08-19T17:49:25;99506.66;;;23.65;65.18
49945;BME280;35838;49.134;9.212;2022-08-19T17:50:59;99494.94;;;23.55;65.55
49945;BME280;35838;49.134;9.212;2022-08-19T17:52:33;99503.72;;;23.55;65.67
49945;BME280;35838;49.134;9.212;2022-08-19T17:54:08;99503.66;;;23.42;65.91
49945;BME280;35838;49.134;9.212;2022-08-19T17:55:46;99507.19;;;23.43;65.97
49945;BME280;35838;49.134;9.212;2022-08-19T17:57:20;99516.00;;;23.29;66.49
49945;BME280;35838;49.134;9.212;2022-08-19T17:58:54;99512.59;;;23.12;67.04
49945;BME280;35838;49.134;9.212;2022-08-19T18:00:28;99512.88;;;23.08;67.34
49945;BME280;35838;49.134;9.212;2022-08-19T18:02:02;99506.16;;;23.02;67.43
49945;BME280;35838;49.134;9.212;2022-08-19T18:03:37;99511.94;;;23.09;67.57
49945;BME280;35838;49.134;9.212;2022-08-19T18:05:12;99517.59;;;23.03;67.66
49945;BME280;35838;49.134;9.212;2022-08-19T18:06:46;99519.09;;;23.07;67.15
49945;BME280;35838;49.134;9.212;2022-08-19T18:08:20;99515.31;;;23.11;66.96
49945;BME280;35838;49.134;9.212;2022-08-19T18:09:54;99517.88;;;23.12;66.97
49945;BME280;35838;49.134;9.212;2022-08-19T18:11:31;99519.38;;;23.16;66.98
49945;BME280;35838;49.134;9.212;2022-08-19T18:13:05;99518.06;;;23.09;67.26
49945;BME280;35838;49.134;9.212;2022-08-19T18:14:40;99517.50;;;22.90;67.70
49945;BME280;35838;49.134;9.212;2022-08-19T18:16:14;99523.38;;;22.95;67.71
49945;BME280;35838;49.134;9.212;2022-08-19T18:17:48;99522.44;;;22.96;67.83
49945;BME280;35838;49.134;9.212;2022-08-19T18:19:22;99521.19;;;23.01;67.22
49945;BME280;35838;49.134;9.212;2022-08-19T18:20:56;99514.56;;;22.94;67.49
49945;BME280;35838;49.134;9.212;2022-08-19T18:22:33;99516.16;;;22.97;67.69
49945;BME280;35838;49.134;9.212;2022-08-19T18:24:07;99524.03;;;22.98;67.17
49945;BME280;35838;49.134;9.212;2022-08-19T18:25:42;99519.03;;;22.94;67.81
49945;BME280;35838;49.134;9.212;2022-08-19T18:27:19;99521.00;;;22.90;67.58
49945;BME280;35838;49.134;9.212;2022-08-19T18:28:53;99528.47;;;22.69;68.37
49945;BME280;35838;49.134;9.212;2022-08-19T18:30:28;99522.03;;;22.73;68.54
49945;BME280;35838;49.134;9.212;2022-08-19T18:32:04;99523.63;;;22.47;69.63
49945;BME280;35838;49.134;9.212;2022-08-19T18:33:36;99531.34;;;22.50;69.59
49945;BME280;35838;49.134;9.212;2022-08-19T18:35:12;99525.22;;;22.64;69.09
49945;BME280;35838;49.134;9.212;2022-08-19T18:36:46;99525.81;;;22.69;68.92
49945;BME280;35838;49.134;9.212;2022-08-19T18:38:21;99522.97;;;22.72;68.72
49945;BME280;35838;49.134;9.212;2022-08-19T18:40:10;99540.53;;;22.73;68.64
49945;BME280;35838;49.134;9.212;2022-08-19T18:41:56;99539.44;;;22.77;68.67
49945;BME280;35838;49.134;9.212;2022-08-19T18:43:46;99539.44;;;22.77;68.93
49945;BME280;35838;49.134;9.212;2022-08-19T18:45:32;99541.41;;;22.74;69.11
49945;BME280;35838;49.134;9.212;2022-08-19T18:47:18;99543.94;;;22.75;68.57
49945;BME280;35838;49.134;9.212;2022-08-19T18:49:05;99541.31;;;22.75;68.86
49945;BME280;35838;49.134;9.212;2022-08-19T18:50:40;99540.16;;;22.65;69.01
49945;BME280;35838;49.134;9.212;2022-08-19T18:52:15;99543.34;;;22.70;69.12
49945;BME280;35838;49.134;9.212;2022-08-19T18:53:49;99542.50;;;22.55;69.48
49945;BME280;35838;49.134;9.212;2022-08-19T18:55:27;99543.34;;;22.56;69.43
49945;BME280;35838;49.134;9.212;2022-08-19T18:57:01;99543.53;;;22.52;69.80
49945;BME280;35838;49.134;9.212;2022-08-19T18:58:36;99547.13;;;22.21;70.66
49945;BME280;35838;49.134;9.212;2022-08-19T19:00:14;99549.13;;;22.32;70.87
49945;BME280;35838;49.134;9.212;2022-08-19T19:01:48;99552.34;;;22.37;70.59
49945;BME280;35838;49.134;9.212;2022-08-19T19:03:25;99551.34;;;22.40;70.19
49945;BME280;35838;49.134;9.212;2022-08-19T19:04:59;99552.09;;;22.42;70.46
49945;BME280;35838;49.134;9.212;2022-08-19T19:06:35;99547.31;;;22.32;70.64
49945;BME280;35838;49.134;9.212;2022-08-19T19:08:10;99558.66;;;22.34;70.44
49945;BME280;35838;49.134;9.212;2022-08-19T19:09:47;99558.50;;;22.37;70.15
49945;BME280;35838;49.134;9.212;2022-08-19T19:11:23;99557.50;;;22.40;70.37
49945;BME280;35838;49.134;9.212;2022-08-19T19:12:57;99569.34;;;22.33;70.49
49945;BME280;35838;49.134;9.212;2022-08-19T19:14:33;99562.84;;;22.38;70.27
49945;BME280;35838;49.134;9.212;2022-08-19T19:16:11;99566.31;;;22.39;70.39
49945;BME280;35838;49.134;9.212;2022-08-19T19:17:45;99565.56;;;22.37;70.21
49945;BME280;35838;49.134;9.212;2022-08-19T19:19:19;99571.88;;;22.34;70.15
49945;BME280;35838;49.134;9.212;2022-08-19T19:20:55;99568.06;;;22.40;70.30
49945;BME280;35838;49.134;9.212;2022-08-19T19:22:29;99566.84;;;22.30;70.32
49945;BME280;35838;49.134;9.212;2022-08-19T19:24:04;99573.75;;;22.32;70.39
49945;BME280;35838;49.134;9.212;2022-08-19T19:25:38;99572.16;;;22.30;70.90
49945;BME280;35838;49.134;9.212;2022-08-19T19:27:14;99574.78;;;22.30;70.49
49945;BME280;35838;49.134;9.212;2022-08-19T19:28:50;99578.97;;;22.34;70.53
49945;BME280;35838;49.134;9.212;2022-08-19T19:30:24;99578.00;;;22.35;70.35
49945;BME280;35838;49.134;9.212;2022-08-19T19:32:04;99586.13;;;22.32;70.11
49945;BME280;35838;49.134;9.212;2022-08-19T19:33:38;99576.34;;;22.34;70.19
49945;BME280;35838;49.134;9.212;2022-08-19T19:35:12;99583.50;;;22.32;69.92
49945;BME280;35838;49.134;9.212;2022-08-19T19:36:47;99582.72;;;22.30;70.44
49945;BME280;35838;49.134;9.212;2022-08-19T19:39:55;99584.59;;;22.28;70.36
49945;BME280;35838;49.134;9.212;2022-08-19T19:41:29;99581.47;;;22.21;70.16
49945;BME280;35838;49.134;9.212;2022-08-19T19:43:05;99583.09;;;22.23;70.29
49945;BME280;35838;49.134;9.212;2022-08-19T19:44:40;99583.91;;;22.24;70.02
49945;BME280;35838;49.134;9.212;2022-08-19T19:46:18;99586.94;;;22.18;70.22
49945;BME280;35838;49.134;9.212;2022-08-19T19:47:54;99583.09;;;22.23;70.12
49945;BME280;35838;49.134;9.212;2022-08-19T19:49:27;99586.66;;;22.22;70.09
49945;BME280;35838;49.134;9.212;2022-08-19T19:51:03;99583.91;;;22.24;70.15
49945;BME280;35838;49.134;9.212;2022-08-19T19:52:38;99593.47;;;22.27;69.88
49945;BME280;35838;49.134;9.212;2022-08-19T19:54:12;99592.78;;;22.23;69.91
49945;BME280;35838;49.134;9.212;2022-08-19T19:55:48;99597.06;;;22.26;70.21
49945;BME280;35838;49.134;9.212;2022-08-19T19:57:24;99593.06;;;22.18;70.10
49945;BME280;35838;49.134;9.212;2022-08-19T19:58:59;99591.94;;;22.22;70.08
49945;BME280;35838;49.134;9.212;2022-08-19T20:00:34;99596.75;;;22.00;70.99
49945;BME280;35838;49.134;9.212;2022-08-19T20:02:08;99593.50;;;22.11;70.63
49945;BME280;35838;49.134;9.212;2022-08-19T20:03:45;99595.22;;;22.12;70.61
49945;BME280;35838;49.134;9.212;2022-08-19T20:05:20;99596.16;;;22.11;70.79
49945;BME280;35838;49.134;9.212;2022-08-19T20:06:54;99604.75;;;22.14;70.71
49945;BME280;35838;49.134;9.212;2022-08-19T20:08:28;99596.06;;;22.12;70.48
49945;BME280;35838;49.134;9.212;2022-08-19T20:10:15;99600.94;;;22.04;70.90
49945;BME280;35838;49.134;9.212;2022-08-19T20:11:48;99599.91;;;22.06;70.81
49945;BME280;35838;49.134;9.212;2022-08-19T20:13:23;99606.13;;;22.05;70.56
49945;BME280;35838;49.134;9.212;2022-08-19T20:14:56;99601.69;;;22.06;71.02
49945;BME280;35838;49.134;9.212;2022-08-19T20:16:31;99610.03;;;21.98;71.22
49945;BME280;35838;49.134;9.212;2022-08-19T20:18:03;99599.31;;;22.01;71.04
49945;BME280;35838;49.134;9.212;2022-08-19T20:19:40;99597.34;;;22.05;70.84
49945;BME280;35838;49.134;9.212;2022-08-19T20:21:14;99610.56;;;22.05;70.67
49945;BME280;35838;49.134;9.212;2022-08-19T20:22:46;99607.91;;;22.05;70.81
49945;BME280;35838;49.134;9.212;2022-08-19T20:24:23;99603.41;;;22.07;70.50
49945;BME280;35838;49.134;9.212;2022-08-19T20:25:57;99603.72;;;22.01;70.89
49945;BME280;35838;49.134;9.212;2022-08-19T20:27:30;99609.13;;;21.99;71.21
49945;BME280;35838;49.134;9.212;2022-08-19T20:29:04;99607.81;;;22.06;70.99
49945;BME280;35838;49.134;9.212;2022-08-19T20:30:39;99601.69;;;22.06;70.60
49945;BME280;35838;49.134;9.212;2022-08-19T20:32:15;99609.53;;;22.07;70.58
49945;BME280;35838;49.134;9.212;2022-08-19T20:33:49;99610.31;;;22.10;70.52
49945;BME280;35838;49.134;9.212;2022-08-19T20:35:25;99600.34;;;21.99;70.86
49945;BME280;35838;49.134;9.212;2022-08-19T20:37:00;99609.53;;;21.91;71.32
49945;BME280;35838;49.134;9.212;2022-08-19T20:38:34;99600.41;;;21.97;71.26
49945;BME280;35838;49.134;9.212;2022-08-19T20:40:10;99610.72;;;22.02;70.94
49945;BME280;35838;49.134;9.212;2022-08-19T20:41:44;99603.72;;;22.01;70.96
49945;BME280;35838;49.134;9.212;2022-08-19T20:43:18;99607.31;;;22.00;70.72
49945;BME280;35838;49.134;9.212;2022-08-19T20:44:52;99607.03;;;22.04;70.37
49945;BME280;35838;49.134;9.212;2022-08-19T20:46:26;99609.00;;;22.01;70.52
49945;BME280;35838;49.134;9.212;2022-08-19T20:48:02;99616.00;;;22.02;70.59
49945;BME280;35838;49.134;9.212;2022-08-19T20:49:34;99608.44;;;21.96;70.70
49945;BME280;35838;49.134;9.212;2022-08-19T20:51:11;99614.31;;;22.01;70.72
49945;BME280;35838;49.134;9.212;2022-08-19T20:52:45;99606.22;;;22.04;70.57
49945;BME280;35838;49.134;9.212;2022-08-19T20:54:19;99613.09;;;22.06;70.51
49945;BME280;35838;49.134;9.212;2022-08-19T20:55:53;99614.81;;;22.07;70.66
49945;BME280;35838;49.134;9.212;2022-08-19T20:57:27;99614.66;;;22.11;70.35
49945;BME280;35838;49.134;9.212;2022-08-19T20:59:01;99609.16;;;22.14;69.94
49945;BME280;35838;49.134;9.212;2022-08-19T21:00:40;99610.72;;;22.18;69.16
49945;BME280;35838;49.134;9.212;2022-08-19T21:02:15;99615.91;;;22.19;69.13
49945;BME280;35838;49.134;9.212;2022-08-19T21:03:49;99616.09;;;22.16;69.20
49945;BME280;35838;49.134;9.212;2022-08-19T21:05:24;99609.84;;;22.17;68.92
49945;BME280;35838;49.134;9.212;2022-08-19T21:07:00;99613.44;;;22.16;69.10
49945;BME280;35838;49.134;9.212;2022-08-19T21:08:35;99617.88;;;22.16;68.89
49945;BME280;35838;49.134;9.212;2022-08-19T21:10:09;99612.22;;;22.22;68.67
49945;BME280;35838;49.134;9.212;2022-08-19T21:11:43;99616.66;;;22.21;68.66
49945;BME280;35838;49.134;9.212;2022-08-19T21:13:18;99614.19;;;22.18;69.14
49945;BME280;35838;49.134;9.212;2022-08-19T21:14:52;99613.44;;;22.16;69.18
49945;BME280;35838;49.134;9.212;2022-08-19T21:16:26;99610.03;;;22.14;69.32
49945;BME280;35838;49.134;9.212;2022-08-19T21:18:02;99610.63;;;22.19;69.10
49945;BME280;35838;49.134;9.212;2022-08-19T21:19:36;99615.91;;;22.19;68.71
49945;BME280;35838;49.134;9.212;2022-08-19T21:21:10;99618.63;;;22.18;68.63
49945;BME280;35838;49.134;9.212;2022-08-19T21:22:47;99615.06;;;22.03;69.00
49945;BME280;35838;49.134;9.212;2022-08-19T21:24:21;99617.56;;;22.06;69.08
49945;BME280;35838;49.134;9.212;2022-08-19T21:25:54;99622.63;;;22.09;69.38
49945;BME280;35838;49.134;9.212;2022-08-19T21:27:28;99622.63;;;22.09;69.01
49945;BME280;35838;49.134;9.212;2022-08-19T21:29:02;99618.13;;;22.11;69.38
49945;BME280;35838;49.134;9.212;2022-08-19T21:30:36;99618.91;;;22.13;69.11
49945;BME280;35838;49.134;9.212;2022-08-19T21:32:11;99620.88;;;22.10;69.71
49945;BME280;35838;49.134;9.212;2022-08-19T21:33:45;99613.19;;;22.05;69.62